sensor_id;sensor_type;location;lat;lon;timestamp;P1;durP1;ratioP1;P2;durP2;ratioP2
25249;SDS011;13201;51.148;13.738;2023-05-14T00:01:24;9.07;;;5.78;;
25249;SDS011;13201;51.148;13.738;2023-05-14T00:03:50;7.25;;;5.25;;
25249;SDS011;13201;51.148;13.738;2023-05-14T00:06:16;10.52;;;5.05;;
25249;SDS011;13201;51.148;13.738;2023-05-14T00:08:41;8.88;;;5.00;;
25249;SDS011;13201;51.148;13.738;2023-05-14T00:11:07;10.15;;;5.60;;
25249;SDS011;13201;51.148;13.738;2023-05-14T00:13:35;10.80;;;5.30;;
25249;SDS011;13201;51.148;13.738;2023-05-14T00:16:01;8.10;;;5.22;;
25249;SDS011;13201;51.148;13.738;2023-05-14T00:18:26;9.32;;;4.82;;
25249;SDS011;13201;51.148;13.738;2023-05-14T00:20:52;7.07;;;5.20;;
25249;SDS011;13201;51.148;13.738;2023-05-14T00:23:22;10.50;;;5.03;;
25249;SDS011;13201;51.148;13.738;2023-05-14T00:25:48;9.68;;;5.25;;
25249;SDS011;13201;51.148;13.738;2023-05-14T00:28:14;8.57;;;4.90;;
25249;SDS011;13201;51.148;13.738;2023-05-14T00:30:40;8.50;;;5.00;;
25249;SDS011;13201;51.148;13.738;2023-05-14T00:33:06;7.43;;;5.43;;
25249;SDS011;13201;51.148;13.738;2023-05-14T00:35:31;7.85;;;5.20;;
25249;SDS011;13201;51.148;13.738;2023-05-14T00:38:01;8.07;;;5.43;;
25249;SDS011;13201;51.148;13.738;2023-05-14T00:40:27;8.00;;;5.50;;
25249;SDS011;13201;51.148;13.738;2023-05-14T00:42:53;10.07;;;5.40;;
25249;SDS011;13201;51.148;13.738;2023-05-14T00:45:20;8.18;;;5.07;;
25249;SDS011;13201;51.148;13.738;2023-05-14T00:47:46;8.23;;;5.20;;
25249;SDS011;13201;51.148;13.738;2023-05-14T00:50:13;5.97;;;4.70;;
25249;SDS011;13201;51.148;13.738;2023-05-14T00:52:40;6.95;;;5.10;;
25249;SDS011;13201;51.148;13.738;2023-05-14T00:55:06;8.73;;;4.90;;
25249;SDS011;13201;51.148;13.738;2023-05-14T00:57:33;9.82;;;5.32;;
25249;SDS011;13201;51.148;13.738;2023-05-14T01:00:00;7.28;;;5.50;;
25249;SDS011;13201;51.148;13.738;2023-05-14T01:02:26;7.35;;;5.40;;
25249;SDS011;13201;51.148;13.738;2023-05-14T01:30:23;8.02;;;6.22;;
25249;SDS011;13201;51.148;13.738;2023-05-14T01:33:02;9.68;;;6.35;;
25249;SDS011;13201;51.148;13.738;2023-05-14T01:35:31;8.25;;;5.90;;
25249;SDS011;13201;51.148;13.738;2023-05-14T01:37:59;9.03;;;5.90;;
25249;SDS011;13201;51.148;13.738;2023-05-14T01:40:27;7.70;;;5.60;;
25249;SDS011;13201;51.148;13.738;2023-05-14T01:42:55;8.32;;;5.68;;
25249;SDS011;13201;51.148;13.738;2023-05-14T01:45:24;7.93;;;5.28;;
25249;SDS011;13201;51.148;13.738;2023-05-14T01:47:51;8.23;;;5.72;;
25249;SDS011;13201;51.148;13.738;2023-05-14T01:50:17;9.27;;;5.53;;
25249;SDS011;13201;51.148;13.738;2023-05-14T01:52:43;6.75;;;5.32;;
25249;SDS011;13201;51.148;13.738;2023-05-14T01:55:09;6.95;;;5.20;;
25249;SDS011;13201;51.148;13.738;2023-05-14T01:57:35;7.07;;;4.85;;
25249;SDS011;13201;51.148;13.738;2023-05-14T02:00:00;7.68;;;5.20;;
25249;SDS011;13201;51.148;13.738;2023-05-14T02:04:53;5.93;;;4.73;;
25249;SDS011;13201;51.148;13.738;2023-05-14T02:07:19;7.93;;;5.13;;
25249;SDS011;13201;51.148;13.738;2023-05-14T02:09:44;6.18;;;5.03;;
25249;SDS011;13201;51.148;13.738;2023-05-14T02:12:10;9.10;;;4.95;;
25249;SDS011;13201;51.148;13.738;2023-05-14T02:14:36;7.93;;;4.60;;
25249;SDS011;13201;51.148;13.738;2023-05-14T02:17:02;9.05;;;5.90;;
25249;SDS011;13201;51.148;13.738;2023-05-14T02:19:28;7.68;;;5.32;;
25249;SDS011;13201;51.148;13.738;2023-05-14T02:21:54;9.00;;;5.65;;
25249;SDS011;13201;51.148;13.738;2023-05-14T02:24:20;8.05;;;5.63;;
25249;SDS011;13201;51.148;13.738;2023-05-14T02:26:45;8.27;;;5.57;;
25249;SDS011;13201;51.148;13.738;2023-05-14T02:29:11;8.70;;;5.78;;
25249;SDS011;13201;51.148;13.738;2023-05-14T02:31:37;9.20;;;5.88;;
25249;SDS011;13201;51.148;13.738;2023-05-14T02:34:03;10.07;;;5.70;;
25249;SDS011;13201;51.148;13.738;2023-05-14T02:36:30;7.65;;;5.78;;
25249;SDS011;13201;51.148;13.738;2023-05-14T02:38:57;8.07;;;5.68;;
25249;SDS011;13201;51.148;13.738;2023-05-14T02:41:23;8.85;;;5.90;;
25249;SDS011;13201;51.148;13.738;2023-05-14T02:43:49;9.93;;;5.40;;
25249;SDS011;13201;51.148;13.738;2023-05-14T02:46:15;9.90;;;5.20;;
25249;SDS011;13201;51.148;13.738;2023-05-14T02:48:41;10.57;;;6.03;;
25249;SDS011;13201;51.148;13.738;2023-05-14T02:51:07;11.05;;;6.20;;
25249;SDS011;13201;51.148;13.738;2023-05-14T02:53:33;8.07;;;5.73;;
25249;SDS011;13201;51.148;13.738;2023-05-14T02:55:59;11.05;;;6.13;;
25249;SDS011;13201;51.148;13.738;2023-05-14T02:58:24;11.65;;;6.25;;
25249;SDS011;13201;51.148;13.738;2023-05-14T03:00:50;8.75;;;5.97;;
25249;SDS011;13201;51.148;13.738;2023-05-14T03:03:17;8.02;;;6.00;;
25249;SDS011;13201;51.148;13.738;2023-05-14T03:05:43;7.32;;;5.90;;
25249;SDS011;13201;51.148;13.738;2023-05-14T03:08:08;8.95;;;6.05;;
25249;SDS011;13201;51.148;13.738;2023-05-14T03:10:34;10.57;;;6.28;;
25249;SDS011;13201;51.148;13.738;2023-05-14T03:13:00;10.85;;;5.63;;
25249;SDS011;13201;51.148;13.738;2023-05-14T03:15:26;7.45;;;5.55;;
25249;SDS011;13201;51.148;13.738;2023-05-14T03:17:51;10.10;;;5.45;;
25249;SDS011;13201;51.148;13.738;2023-05-14T03:20:17;8.45;;;5.82;;
25249;SDS011;13201;51.148;13.738;2023-05-14T03:22:42;6.82;;;5.45;;
25249;SDS011;13201;51.148;13.738;2023-05-14T03:25:08;7.50;;;5.55;;
25249;SDS011;13201;51.148;13.738;2023-05-14T03:27:34;10.20;;;6.20;;
25249;SDS011;13201;51.148;13.738;2023-05-14T03:30:00;8.70;;;6.22;;
25249;SDS011;13201;51.148;13.738;2023-05-14T03:32:26;8.88;;;6.47;;
25249;SDS011;13201;51.148;13.738;2023-05-14T03:34:51;8.32;;;5.82;;
25249;SDS011;13201;51.148;13.738;2023-05-14T03:37:17;8.73;;;5.82;;
25249;SDS011;13201;51.148;13.738;2023-05-14T03:39:43;7.38;;;5.35;;
25249;SDS011;13201;51.148;13.738;2023-05-14T03:42:08;9.93;;;6.20;;
25249;SDS011;13201;51.148;13.738;2023-05-14T03:44:34;8.10;;;5.95;;
25249;SDS011;13201;51.148;13.738;2023-05-14T03:47:00;8.85;;;6.03;;
25249;SDS011;13201;51.148;13.738;2023-05-14T03:49:26;10.88;;;6.10;;
25249;SDS011;13201;51.148;13.738;2023-05-14T03:51:51;9.07;;;5.82;;
25249;SDS011;13201;51.148;13.738;2023-05-14T03:54:17;8.43;;;6.13;;
25249;SDS011;13201;51.148;13.738;2023-05-14T03:56:42;10.60;;;5.80;;
25249;SDS011;13201;51.148;13.738;2023-05-14T03:59:08;9.93;;;6.03;;
25249;SDS011;13201;51.148;13.738;2023-05-14T04:01:34;8.50;;;5.85;;
25249;SDS011;13201;51.148;13.738;2023-05-14T04:03:59;9.00;;;5.60;;
25249;SDS011;13201;51.148;13.738;2023-05-14T04:06:25;9.68;;;5.57;;
25249;SDS011;13201;51.148;13.738;2023-05-14T04:08:51;9.43;;;5.68;;
25249;SDS011;13201;51.148;13.738;2023-05-14T04:11:17;8.57;;;5.77;;
25249;SDS011;13201;51.148;13.738;2023-05-14T04:13:43;11.10;;;5.80;;
25249;SDS011;13201;51.148;13.738;2023-05-14T04:16:09;7.40;;;5.70;;
25249;SDS011;13201;51.148;13.738;2023-05-14T04:18:34;7.57;;;5.72;;
25249;SDS011;13201;51.148;13.738;2023-05-14T04:21:00;7.50;;;4.95;;
25249;SDS011;13201;51.148;13.738;2023-05-14T04:23:26;7.72;;;5.25;;
25249;SDS011;13201;51.148;13.738;2023-05-14T04:25:52;9.05;;;6.38;;
25249;SDS011;13201;51.148;13.738;2023-05-14T04:28:18;8.13;;;5.28;;
25249;SDS011;13201;51.148;13.738;2023-05-14T04:30:44;11.80;;;5.97;;
25249;SDS011;13201;51.148;13.738;2023-05-14T04:33:09;10.52;;;5.82;;
25249;SDS011;13201;51.148;13.738;2023-05-14T04:35:35;9.88;;;6.03;;
25249;SDS011;13201;51.148;13.738;2023-05-14T04:38:01;8.60;;;5.82;;
25249;SDS011;13201;51.148;13.738;2023-05-14T04:40:27;8.25;;;5.78;;
25249;SDS011;13201;51.148;13.738;2023-05-14T04:42:53;9.50;;;6.30;;
25249;SDS011;13201;51.148;13.738;2023-05-14T04:45:18;8.65;;;6.18;;
25249;SDS011;13201;51.148;13.738;2023-05-14T04:47:44;10.77;;;6.32;;
25249;SDS011;13201;51.148;13.738;2023-05-14T04:50:10;10.60;;;6.17;;
25249;SDS011;13201;51.148;13.738;2023-05-14T04:52:37;10.57;;;5.80;;
25249;SDS011;13201;51.148;13.738;2023-05-14T04:55:03;11.32;;;6.30;;
25249;SDS011;13201;51.148;13.738;2023-05-14T04:57:29;9.25;;;6.40;;
25249;SDS011;13201;51.148;13.738;2023-05-14T04:59:55;10.13;;;6.68;;
25249;SDS011;13201;51.148;13.738;2023-05-14T05:02:20;10.85;;;6.45;;
25249;SDS011;13201;51.148;13.738;2023-05-14T05:04:46;12.40;;;7.25;;
25249;SDS011;13201;51.148;13.738;2023-05-14T05:07:12;10.88;;;6.93;;
25249;SDS011;13201;51.148;13.738;2023-05-14T05:09:38;11.02;;;7.22;;
25249;SDS011;13201;51.148;13.738;2023-05-14T05:12:04;9.00;;;6.40;;
25249;SDS011;13201;51.148;13.738;2023-05-14T05:14:30;9.03;;;7.03;;
25249;SDS011;13201;51.148;13.738;2023-05-14T05:16:56;11.38;;;6.65;;
25249;SDS011;13201;51.148;13.738;2023-05-14T05:19:21;9.10;;;6.55;;
25249;SDS011;13201;51.148;13.738;2023-05-14T05:21:47;9.60;;;6.43;;
25249;SDS011;13201;51.148;13.738;2023-05-14T05:24:15;9.82;;;6.10;;
25249;SDS011;13201;51.148;13.738;2023-05-14T05:26:40;9.77;;;6.40;;
25249;SDS011;13201;51.148;13.738;2023-05-14T05:29:06;10.13;;;6.60;;
25249;SDS011;13201;51.148;13.738;2023-05-14T05:31:32;15.15;;;6.55;;
25249;SDS011;13201;51.148;13.738;2023-05-14T05:33:58;8.95;;;6.38;;
25249;SDS011;13201;51.148;13.738;2023-05-14T05:36:25;12.48;;;6.28;;
25249;SDS011;13201;51.148;13.738;2023-05-14T05:38:50;9.48;;;6.07;;
25249;SDS011;13201;51.148;13.738;2023-05-14T05:41:16;10.18;;;6.38;;
25249;SDS011;13201;51.148;13.738;2023-05-14T05:43:42;9.50;;;6.28;;
25249;SDS011;13201;51.148;13.738;2023-05-14T05:46:07;9.27;;;6.68;;
25249;SDS011;13201;51.148;13.738;2023-05-14T05:48:33;8.35;;;5.85;;
25249;SDS011;13201;51.148;13.738;2023-05-14T05:50:59;11.88;;;6.88;;
25249;SDS011;13201;51.148;13.738;2023-05-14T05:53:25;17.52;;;9.57;;
25249;SDS011;13201;51.148;13.738;2023-05-14T05:55:50;11.10;;;7.25;;
25249;SDS011;13201;51.148;13.738;2023-05-14T05:58:16;11.07;;;6.82;;
25249;SDS011;13201;51.148;13.738;2023-05-14T06:00:43;10.70;;;6.65;;
25249;SDS011;13201;51.148;13.738;2023-05-14T06:03:09;10.43;;;6.30;;
25249;SDS011;13201;51.148;13.738;2023-05-14T06:05:35;11.95;;;5.82;;
25249;SDS011;13201;51.148;13.738;2023-05-14T06:08:01;8.35;;;6.07;;
25249;SDS011;13201;51.148;13.738;2023-05-14T06:10:27;8.48;;;6.07;;
25249;SDS011;13201;51.148;13.738;2023-05-14T06:12:53;9.65;;;6.35;;
25249;SDS011;13201;51.148;13.738;2023-05-14T06:15:18;11.00;;;5.78;;
25249;SDS011;13201;51.148;13.738;2023-05-14T06:17:44;10.70;;;6.10;;
25249;SDS011;13201;51.148;13.738;2023-05-14T06:20:10;10.57;;;6.10;;
25249;SDS011;13201;51.148;13.738;2023-05-14T06:22:36;10.27;;;5.73;;
25249;SDS011;13201;51.148;13.738;2023-05-14T06:25:02;9.05;;;5.90;;
25249;SDS011;13201;51.148;13.738;2023-05-14T06:27:28;8.80;;;5.90;;
25249;SDS011;13201;51.148;13.738;2023-05-14T06:29:54;11.65;;;6.50;;
25249;SDS011;13201;51.148;13.738;2023-05-14T06:32:19;8.82;;;6.18;;
25249;SDS011;13201;51.148;13.738;2023-05-14T06:34:45;10.90;;;5.80;;
25249;SDS011;13201;51.148;13.738;2023-05-14T06:37:11;7.78;;;5.47;;
25249;SDS011;13201;51.148;13.738;2023-05-14T06:39:37;10.00;;;5.65;;
25249;SDS011;13201;51.148;13.738;2023-05-14T06:42:03;22.45;;;12.00;;
25249;SDS011;13201;51.148;13.738;2023-05-14T06:44:29;11.73;;;6.28;;
25249;SDS011;13201;51.148;13.738;2023-05-14T06:46:55;10.10;;;5.68;;
25249;SDS011;13201;51.148;13.738;2023-05-14T06:49:21;9.70;;;5.40;;
25249;SDS011;13201;51.148;13.738;2023-05-14T06:51:47;8.52;;;5.90;;
25249;SDS011;13201;51.148;13.738;2023-05-14T06:54:13;7.30;;;5.55;;
25249;SDS011;13201;51.148;13.738;2023-05-14T06:56:38;7.47;;;5.00;;
25249;SDS011;13201;51.148;13.738;2023-05-14T06:59:04;6.15;;;4.70;;
25249;SDS011;13201;51.148;13.738;2023-05-14T07:01:30;6.80;;;5.40;;
25249;SDS011;13201;51.148;13.738;2023-05-14T07:03:55;6.28;;;4.75;;
25249;SDS011;13201;51.148;13.738;2023-05-14T07:06:21;7.60;;;4.82;;
25249;SDS011;13201;51.148;13.738;2023-05-14T07:08:47;9.53;;;5.33;;
25249;SDS011;13201;51.148;13.738;2023-05-14T07:11:13;9.40;;;5.40;;
25249;SDS011;13201;51.148;13.738;2023-05-14T07:13:39;6.78;;;4.93;;
25249;SDS011;13201;51.148;13.738;2023-05-14T07:16:06;7.43;;;4.40;;
25249;SDS011;13201;51.148;13.738;2023-05-14T07:18:35;6.60;;;4.57;;
25249;SDS011;13201;51.148;13.738;2023-05-14T07:21:01;6.78;;;4.30;;
25249;SDS011;13201;51.148;13.738;2023-05-14T07:23:30;7.43;;;4.03;;
25249;SDS011;13201;51.148;13.738;2023-05-14T07:26:03;6.65;;;3.67;;
25249;SDS011;13201;51.148;13.738;2023-05-14T07:28:29;7.70;;;3.97;;
25249;SDS011;13201;51.148;13.738;2023-05-14T07:30:55;10.50;;;3.72;;
25249;SDS011;13201;51.148;13.738;2023-05-14T07:33:21;8.88;;;3.78;;
25249;SDS011;13201;51.148;13.738;2023-05-14T07:35:47;7.77;;;3.67;;
25249;SDS011;13201;51.148;13.738;2023-05-14T07:38:13;4.85;;;3.72;;
25249;SDS011;13201;51.148;13.738;2023-05-14T07:40:39;5.70;;;3.63;;
25249;SDS011;13201;51.148;13.738;2023-05-14T07:43:04;6.07;;;4.03;;
25249;SDS011;13201;51.148;13.738;2023-05-14T07:45:30;7.32;;;3.70;;
25249;SDS011;13201;51.148;13.738;2023-05-14T07:47:56;6.07;;;3.90;;
25249;SDS011;13201;51.148;13.738;2023-05-14T07:50:21;3.85;;;3.45;;
25249;SDS011;13201;51.148;13.738;2023-05-14T07:52:47;6.85;;;4.03;;
25249;SDS011;13201;51.148;13.738;2023-05-14T07:55:13;5.13;;;3.55;;
25249;SDS011;13201;51.148;13.738;2023-05-14T07:57:39;4.90;;;3.42;;
25249;SDS011;13201;51.148;13.738;2023-05-14T08:00:04;5.03;;;3.72;;
25249;SDS011;13201;51.148;13.738;2023-05-14T08:02:34;10.98;;;3.80;;
25249;SDS011;13201;51.148;13.738;2023-05-14T08:04:59;6.28;;;4.30;;
25249;SDS011;13201;51.148;13.738;2023-05-14T08:07:25;6.00;;;3.90;;
25249;SDS011;13201;51.148;13.738;2023-05-14T08:09:53;5.85;;;4.15;;
25249;SDS011;13201;51.148;13.738;2023-05-14T08:12:18;4.75;;;3.30;;
25249;SDS011;13201;51.148;13.738;2023-05-14T08:14:44;5.03;;;3.90;;
25249;SDS011;13201;51.148;13.738;2023-05-14T08:17:10;4.63;;;3.70;;
25249;SDS011;13201;51.148;13.738;2023-05-14T08:19:36;3.47;;;3.00;;
25249;SDS011;13201;51.148;13.738;2023-05-14T08:22:02;3.13;;;2.60;;
25249;SDS011;13201;51.148;13.738;2023-05-14T08:24:28;3.63;;;3.17;;
25249;SDS011;13201;51.148;13.738;2023-05-14T08:26:54;7.28;;;3.13;;
25249;SDS011;13201;51.148;13.738;2023-05-14T08:29:20;6.23;;;2.93;;
25249;SDS011;13201;51.148;13.738;2023-05-14T08:31:47;5.37;;;3.30;;
25249;SDS011;13201;51.148;13.738;2023-05-14T08:34:16;4.07;;;2.90;;
25249;SDS011;13201;51.148;13.738;2023-05-14T08:36:42;5.35;;;3.13;;
25249;SDS011;13201;51.148;13.738;2023-05-14T08:39:07;4.13;;;3.20;;
25249;SDS011;13201;51.148;13.738;2023-05-14T08:41:33;3.65;;;2.50;;
25249;SDS011;13201;51.148;13.738;2023-05-14T08:44:06;3.00;;;2.47;;
25249;SDS011;13201;51.148;13.738;2023-05-14T08:46:41;7.97;;;2.70;;
25249;SDS011;13201;51.148;13.738;2023-05-14T08:49:54;5.43;;;3.03;;
25249;SDS011;13201;51.148;13.738;2023-05-14T08:51:59;3.63;;;2.83;;
25249;SDS011;13201;51.148;13.738;2023-05-14T08:54:25;4.22;;;3.00;;
25249;SDS011;13201;51.148;13.738;2023-05-14T08:56:52;5.65;;;3.13;;
25249;SDS011;13201;51.148;13.738;2023-05-14T08:59:18;3.92;;;2.90;;
25249;SDS011;13201;51.148;13.738;2023-05-14T09:01:47;3.60;;;2.80;;
25249;SDS011;13201;51.148;13.738;2023-05-14T09:04:18;5.72;;;3.20;;
25249;SDS011;13201;51.148;13.738;2023-05-14T09:06:50;7.40;;;3.30;;
25249;SDS011;13201;51.148;13.738;2023-05-14T09:09:17;3.83;;;2.88;;
25249;SDS011;13201;51.148;13.738;2023-05-14T09:11:46;5.50;;;3.20;;
25249;SDS011;13201;51.148;13.738;2023-05-14T09:14:15;3.42;;;2.80;;
25249;SDS011;13201;51.148;13.738;2023-05-14T09:16:43;3.92;;;2.80;;
25249;SDS011;13201;51.148;13.738;2023-05-14T09:19:10;5.30;;;3.38;;
25249;SDS011;13201;51.148;13.738;2023-05-14T09:21:37;7.13;;;3.50;;
25249;SDS011;13201;51.148;13.738;2023-05-14T09:24:03;4.40;;;3.20;;
25249;SDS011;13201;51.148;13.738;2023-05-14T09:26:30;4.45;;;2.88;;
25249;SDS011;13201;51.148;13.738;2023-05-14T09:28:57;3.03;;;2.58;;
25249;SDS011;13201;51.148;13.738;2023-05-14T09:31:31;4.60;;;2.55;;
25249;SDS011;13201;51.148;13.738;2023-05-14T09:33:57;6.68;;;2.60;;
25249;SDS011;13201;51.148;13.738;2023-05-14T09:36:24;8.70;;;2.70;;
25249;SDS011;13201;51.148;13.738;2023-05-14T09:41:27;5.05;;;2.80;;
25249;SDS011;13201;51.148;13.738;2023-05-14T09:43:53;4.30;;;2.47;;
25249;SDS011;13201;51.148;13.738;2023-05-14T09:46:21;4.55;;;2.83;;
25249;SDS011;13201;51.148;13.738;2023-05-14T09:48:47;8.93;;;2.83;;
25249;SDS011;13201;51.148;13.738;2023-05-14T09:51:13;4.57;;;2.80;;
25249;SDS011;13201;51.148;13.738;2023-05-14T09:53:42;2.85;;;2.33;;
25249;SDS011;13201;51.148;13.738;2023-05-14T09:58:34;6.47;;;2.57;;
25249;SDS011;13201;51.148;13.738;2023-05-14T10:01:00;3.03;;;2.30;;
25249;SDS011;13201;51.148;13.738;2023-05-14T10:03:26;4.57;;;2.78;;
25249;SDS011;13201;51.148;13.738;2023-05-14T10:05:55;3.70;;;2.47;;
25249;SDS011;13201;51.148;13.738;2023-05-14T10:08:32;6.03;;;2.80;;
25249;SDS011;13201;51.148;13.738;2023-05-14T10:10:59;6.55;;;2.70;;
25249;SDS011;13201;51.148;13.738;2023-05-14T10:13:32;3.80;;;3.25;;
25249;SDS011;13201;51.148;13.738;2023-05-14T10:16:10;4.38;;;2.55;;
25249;SDS011;13201;51.148;13.738;2023-05-14T10:18:52;5.45;;;2.60;;
25249;SDS011;13201;51.148;13.738;2023-05-14T10:21:24;3.65;;;2.60;;
25249;SDS011;13201;51.148;13.738;2023-05-14T10:23:53;4.88;;;3.20;;
25249;SDS011;13201;51.148;13.738;2023-05-14T10:26:19;2.67;;;2.30;;
25249;SDS011;13201;51.148;13.738;2023-05-14T10:28:46;3.53;;;2.80;;
25249;SDS011;13201;51.148;13.738;2023-05-14T10:31:12;6.32;;;3.08;;
25249;SDS011;13201;51.148;13.738;2023-05-14T10:33:48;5.13;;;3.13;;
25249;SDS011;13201;51.148;13.738;2023-05-14T10:36:14;5.93;;;3.05;;
25249;SDS011;13201;51.148;13.738;2023-05-14T10:38:42;5.15;;;3.30;;
25249;SDS011;13201;51.148;13.738;2023-05-14T10:41:12;3.83;;;2.90;;
25249;SDS011;13201;51.148;13.738;2023-05-14T10:43:42;5.35;;;2.80;;
25249;SDS011;13201;51.148;13.738;2023-05-14T10:46:09;7.10;;;3.05;;
25249;SDS011;13201;51.148;13.738;2023-05-14T10:48:37;3.90;;;2.80;;
25249;SDS011;13201;51.148;13.738;2023-05-14T10:51:06;3.10;;;2.40;;
25249;SDS011;13201;51.148;13.738;2023-05-14T10:53:34;2.78;;;2.38;;
25249;SDS011;13201;51.148;13.738;2023-05-14T10:58:35;7.22;;;2.85;;
25249;SDS011;13201;51.148;13.738;2023-05-14T11:01:01;3.25;;;2.42;;
25249;SDS011;13201;51.148;13.738;2023-05-14T11:03:28;3.80;;;2.58;;
25249;SDS011;13201;51.148;13.738;2023-05-14T11:05:55;4.30;;;3.05;;
25249;SDS011;13201;51.148;13.738;2023-05-14T11:08:21;4.38;;;2.88;;
25249;SDS011;13201;51.148;13.738;2023-05-14T11:10:47;3.05;;;2.60;;
25249;SDS011;13201;51.148;13.738;2023-05-14T11:15:40;5.03;;;2.80;;
25249;SDS011;13201;51.148;13.738;2023-05-14T11:18:11;5.22;;;2.78;;
25249;SDS011;13201;51.148;13.738;2023-05-14T11:20:36;3.92;;;2.50;;
25249;SDS011;13201;51.148;13.738;2023-05-14T11:23:02;3.42;;;2.70;;
25249;SDS011;13201;51.148;13.738;2023-05-14T11:25:28;3.45;;;2.80;;
25249;SDS011;13201;51.148;13.738;2023-05-14T11:27:54;3.50;;;2.78;;
25249;SDS011;13201;51.148;13.738;2023-05-14T11:30:24;4.82;;;2.60;;
25249;SDS011;13201;51.148;13.738;2023-05-14T11:32:50;3.75;;;2.83;;
25249;SDS011;13201;51.148;13.738;2023-05-14T11:35:16;8.45;;;2.70;;
25249;SDS011;13201;51.148;13.738;2023-05-14T11:37:42;5.07;;;3.55;;
25249;SDS011;13201;51.148;13.738;2023-05-14T11:40:14;8.18;;;4.57;;
25249;SDS011;13201;51.148;13.738;2023-05-14T11:42:42;4.82;;;2.97;;
25249;SDS011;13201;51.148;13.738;2023-05-14T11:45:12;6.10;;;3.37;;
25249;SDS011;13201;51.148;13.738;2023-05-14T11:47:39;4.32;;;2.40;;
25249;SDS011;13201;51.148;13.738;2023-05-14T11:50:06;3.15;;;2.42;;
25249;SDS011;13201;51.148;13.738;2023-05-14T11:52:36;5.03;;;2.80;;
25249;SDS011;13201;51.148;13.738;2023-05-14T11:55:09;3.05;;;2.60;;
25249;SDS011;13201;51.148;13.738;2023-05-14T11:57:36;2.92;;;2.42;;
25249;SDS011;13201;51.148;13.738;2023-05-14T12:00:01;3.58;;;2.75;;
25249;SDS011;13201;51.148;13.738;2023-05-14T12:02:30;4.07;;;3.35;;
25249;SDS011;13201;51.148;13.738;2023-05-14T12:04:55;5.03;;;3.30;;
25249;SDS011;13201;51.148;13.738;2023-05-14T12:07:21;4.90;;;2.55;;
25249;SDS011;13201;51.148;13.738;2023-05-14T12:09:47;5.03;;;2.88;;
25249;SDS011;13201;51.148;13.738;2023-05-14T12:12:15;4.50;;;2.90;;
25249;SDS011;13201;51.148;13.738;2023-05-14T12:14:42;4.30;;;2.60;;
25249;SDS011;13201;51.148;13.738;2023-05-14T12:17:16;3.03;;;2.65;;
25249;SDS011;13201;51.148;13.738;2023-05-14T12:19:45;4.60;;;2.40;;
25249;SDS011;13201;51.148;13.738;2023-05-14T12:22:13;3.50;;;2.90;;
25249;SDS011;13201;51.148;13.738;2023-05-14T12:24:39;6.07;;;3.00;;
25249;SDS011;13201;51.148;13.738;2023-05-14T12:29:37;4.32;;;2.58;;
25249;SDS011;13201;51.148;13.738;2023-05-14T12:32:05;3.90;;;2.80;;
25249;SDS011;13201;51.148;13.738;2023-05-14T12:34:33;4.60;;;2.70;;
25249;SDS011;13201;51.148;13.738;2023-05-14T12:36:59;4.40;;;3.03;;
25249;SDS011;13201;51.148;13.738;2023-05-14T12:39:25;5.50;;;2.63;;
25249;SDS011;13201;51.148;13.738;2023-05-14T12:41:51;4.50;;;2.63;;
25249;SDS011;13201;51.148;13.738;2023-05-14T12:44:17;4.18;;;2.72;;
25249;SDS011;13201;51.148;13.738;2023-05-14T12:46:43;3.63;;;2.47;;
25249;SDS011;13201;51.148;13.738;2023-05-14T12:49:08;4.25;;;2.83;;
25249;SDS011;13201;51.148;13.738;2023-05-14T12:51:35;3.80;;;2.58;;
25249;SDS011;13201;51.148;13.738;2023-05-14T12:54:00;3.10;;;2.47;;
25249;SDS011;13201;51.148;13.738;2023-05-14T12:56:26;4.03;;;2.72;;
25249;SDS011;13201;51.148;13.738;2023-05-14T12:58:53;3.80;;;3.00;;
25249;SDS011;13201;51.148;13.738;2023-05-14T13:01:20;3.65;;;2.78;;
25249;SDS011;13201;51.148;13.738;2023-05-14T13:03:45;3.25;;;2.58;;
25249;SDS011;13201;51.148;13.738;2023-05-14T13:06:11;6.18;;;2.88;;
25249;SDS011;13201;51.148;13.738;2023-05-14T13:08:37;3.40;;;2.75;;
25249;SDS011;13201;51.148;13.738;2023-05-14T13:11:03;5.13;;;3.33;;
25249;SDS011;13201;51.148;13.738;2023-05-14T13:13:28;7.07;;;3.33;;
25249;SDS011;13201;51.148;13.738;2023-05-14T13:15:54;8.63;;;5.43;;
25249;SDS011;13201;51.148;13.738;2023-05-14T13:18:20;12.02;;;7.53;;
25249;SDS011;13201;51.148;13.738;2023-05-14T13:20:46;7.53;;;3.17;;
25249;SDS011;13201;51.148;13.738;2023-05-14T13:23:12;3.73;;;2.90;;
25249;SDS011;13201;51.148;13.738;2023-05-14T13:25:38;7.93;;;2.97;;
25249;SDS011;13201;51.148;13.738;2023-05-14T13:28:04;2.95;;;2.60;;
25249;SDS011;13201;51.148;13.738;2023-05-14T13:30:29;10.35;;;2.78;;
25249;SDS011;13201;51.148;13.738;2023-05-14T13:32:56;4.28;;;2.80;;
25249;SDS011;13201;51.148;13.738;2023-05-14T13:35:22;4.10;;;2.77;;
25249;SDS011;13201;51.148;13.738;2023-05-14T13:37:48;4.43;;;3.17;;
25249;SDS011;13201;51.148;13.738;2023-05-14T13:40:13;4.32;;;2.78;;
25249;SDS011;13201;51.148;13.738;2023-05-14T13:42:39;5.85;;;2.78;;
25249;SDS011;13201;51.148;13.738;2023-05-14T13:45:05;5.22;;;3.15;;
25249;SDS011;13201;51.148;13.738;2023-05-14T13:47:31;4.00;;;3.00;;
25249;SDS011;13201;51.148;13.738;2023-05-14T13:49:57;4.27;;;2.93;;
25249;SDS011;13201;51.148;13.738;2023-05-14T13:52:23;3.63;;;3.03;;
25249;SDS011;13201;51.148;13.738;2023-05-14T13:54:49;3.20;;;2.60;;
25249;SDS011;13201;51.148;13.738;2023-05-14T13:57:15;4.60;;;2.97;;
25249;SDS011;13201;51.148;13.738;2023-05-14T13:59:40;3.85;;;2.83;;
25249;SDS011;13201;51.148;13.738;2023-05-14T14:02:06;6.78;;;2.90;;
25249;SDS011;13201;51.148;13.738;2023-05-14T14:04:32;5.07;;;2.80;;
25249;SDS011;13201;51.148;13.738;2023-05-14T14:06:58;3.72;;;2.90;;
25249;SDS011;13201;51.148;13.738;2023-05-14T14:09:24;5.35;;;2.90;;
25249;SDS011;13201;51.148;13.738;2023-05-14T14:11:50;4.10;;;2.70;;
25249;SDS011;13201;51.148;13.738;2023-05-14T14:14:16;4.28;;;2.58;;
25249;SDS011;13201;51.148;13.738;2023-05-14T14:16:42;4.57;;;2.70;;
25249;SDS011;13201;51.148;13.738;2023-05-14T14:19:08;4.63;;;3.08;;
25249;SDS011;13201;51.148;13.738;2023-05-14T14:21:34;3.40;;;2.63;;
25249;SDS011;13201;51.148;13.738;2023-05-14T14:24:03;10.23;;;6.13;;
25249;SDS011;13201;51.148;13.738;2023-05-14T14:26:29;5.72;;;4.00;;
25249;SDS011;13201;51.148;13.738;2023-05-14T14:28:55;3.63;;;2.93;;
25249;SDS011;13201;51.148;13.738;2023-05-14T14:31:21;8.25;;;3.20;;
25249;SDS011;13201;51.148;13.738;2023-05-14T14:33:47;4.32;;;2.90;;
25249;SDS011;13201;51.148;13.738;2023-05-14T14:36:12;3.40;;;2.70;;
25249;SDS011;13201;51.148;13.738;2023-05-14T14:38:38;4.75;;;2.60;;
25249;SDS011;13201;51.148;13.738;2023-05-14T14:41:04;3.65;;;2.67;;
25249;SDS011;13201;51.148;13.738;2023-05-14T14:43:34;3.33;;;2.92;;
25249;SDS011;13201;51.148;13.738;2023-05-14T14:46:00;3.38;;;2.75;;
25249;SDS011;13201;51.148;13.738;2023-05-14T14:50:58;3.70;;;2.80;;
25249;SDS011;13201;51.148;13.738;2023-05-14T14:53:25;7.35;;;2.90;;
25249;SDS011;13201;51.148;13.738;2023-05-14T14:55:51;8.00;;;2.90;;
25249;SDS011;13201;51.148;13.738;2023-05-14T14:58:18;6.07;;;2.92;;
25249;SDS011;13201;51.148;13.738;2023-05-14T15:00:44;4.60;;;3.00;;
25249;SDS011;13201;51.148;13.738;2023-05-14T15:03:10;5.55;;;3.30;;
25249;SDS011;13201;51.148;13.738;2023-05-14T15:05:36;3.38;;;3.08;;
25249;SDS011;13201;51.148;13.738;2023-05-14T15:08:02;3.65;;;2.85;;
25249;SDS011;13201;51.148;13.738;2023-05-14T15:10:29;8.20;;;3.30;;
25249;SDS011;13201;51.148;13.738;2023-05-14T15:12:56;6.45;;;3.00;;